sensor_id;sensor_type;location;lat;lon;timestamp;P1;durP1;ratioP1;P2;durP2;ratioP2
78308;SDS011;75657;42.022;21.356;2024-03-22T00:00:56;25.67;;;14.23;;
78308;SDS011;75657;42.022;21.356;2024-03-22T00:03:22;30.77;;;17.00;;
78308;SDS011;75657;42.022;21.356;2024-03-22T00:05:47;27.13;;;15.27;;
78308;SDS011;75657;42.022;21.356;2024-03-22T00:08:13;29.17;;;16.35;;
78308;SDS011;75657;42.022;21.356;2024-03-22T00:10:38;28.63;;;16.00;;
78308;SDS011;75657;42.022;21.356;2024-03-22T00:13:04;27.38;;;16.73;;
78308;SDS011;75657;42.022;21.356;2024-03-22T00:15:29;35.28;;;20.27;;
78308;SDS011;75657;42.022;21.356;2024-03-22T00:17:55;32.60;;;17.95;;
78308;SDS011;75657;42.022;21.356;2024-03-22T00:20:20;30.13;;;16.30;;
78308;SDS011;75657;42.022;21.356;2024-03-22T00:22:45;27.05;;;15.05;;
78308;SDS011;75657;42.022;21.356;2024-03-22T00:25:11;25.52;;;15.20;;
78308;SDS011;75657;42.022;21.356;2024-03-22T00:27:36;29.35;;;16.42;;
78308;SDS011;75657;42.022;21.356;2024-03-22T00:30:02;29.15;;;15.68;;
78308;SDS011;75657;42.022;21.356;2024-03-22T00:32:28;28.70;;;16.25;;
78308;SDS011;75657;42.022;21.356;2024-03-22T00:34:53;28.90;;;15.80;;
78308;SDS011;75657;42.022;21.356;2024-03-22T00:37:18;24.95;;;13.00;;
78308;SDS011;75657;42.022;21.356;2024-03-22T00:39:44;18.00;;;9.65;;
78308;SDS011;75657;42.022;21.356;2024-03-22T00:42:09;16.10;;;9.93;;
78308;SDS011;75657;42.022;21.356;2024-03-22T00:44:35;19.45;;;9.40;;
78308;SDS011;75657;42.022;21.356;2024-03-22T00:47:00;18.65;;;9.45;;
78308;SDS011;75657;42.022;21.356;2024-03-22T00:49:28;19.42;;;10.63;;
78308;SDS011;75657;42.022;21.356;2024-03-22T00:51:54;15.13;;;8.57;;
78308;SDS011;75657;42.022;21.356;2024-03-22T00:54:39;14.07;;;8.73;;
78308;SDS011;75657;42.022;21.356;2024-03-22T00:57:05;19.40;;;10.70;;
78308;SDS011;75657;42.022;21.356;2024-03-22T00:59:31;12.85;;;7.25;;
78308;SDS011;75657;42.022;21.356;2024-03-22T01:01:57;11.88;;;7.28;;
78308;SDS011;75657;42.022;21.356;2024-03-22T01:04:23;21.08;;;11.27;;
78308;SDS011;75657;42.022;21.356;2024-03-22T01:06:48;12.65;;;7.70;;
78308;SDS011;75657;42.022;21.356;2024-03-22T01:09:14;13.25;;;6.95;;
78308;SDS011;75657;42.022;21.356;2024-03-22T01:11:42;21.38;;;10.82;;
78308;SDS011;75657;42.022;21.356;2024-03-22T01:14:07;14.90;;;9.43;;
78308;SDS011;75657;42.022;21.356;2024-03-22T01:16:33;15.80;;;9.38;;
78308;SDS011;75657;42.022;21.356;2024-03-22T01:18:58;13.43;;;8.65;;
78308;SDS011;75657;42.022;21.356;2024-03-22T01:21:24;13.98;;;7.93;;
78308;SDS011;75657;42.022;21.356;2024-03-22T01:23:53;13.00;;;7.28;;
78308;SDS011;75657;42.022;21.356;2024-03-22T01:26:18;11.27;;;7.10;;
78308;SDS011;75657;42.022;21.356;2024-03-22T01:28:44;16.83;;;7.93;;
78308;SDS011;75657;42.022;21.356;2024-03-22T01:31:10;13.93;;;7.43;;
78308;SDS011;75657;42.022;21.356;2024-03-22T01:33:35;10.35;;;6.38;;
78308;SDS011;75657;42.022;21.356;2024-03-22T01:36:01;15.07;;;7.50;;
78308;SDS011;75657;42.022;21.356;2024-03-22T01:38:26;14.18;;;8.63;;
78308;SDS011;75657;42.022;21.356;2024-03-22T01:40:51;12.60;;;8.10;;
78308;SDS011;75657;42.022;21.356;2024-03-22T01:43:17;20.70;;;11.40;;
78308;SDS011;75657;42.022;21.356;2024-03-22T01:45:42;21.23;;;10.57;;
78308;SDS011;75657;42.022;21.356;2024-03-22T01:48:08;16.75;;;9.18;;
78308;SDS011;75657;42.022;21.356;2024-03-22T01:50:33;17.95;;;10.07;;
78308;SDS011;75657;42.022;21.356;2024-03-22T01:53:00;16.13;;;9.25;;
78308;SDS011;75657;42.022;21.356;2024-03-22T01:55:26;15.88;;;8.15;;
78308;SDS011;75657;42.022;21.356;2024-03-22T01:57:54;14.55;;;7.82;;
78308;SDS011;75657;42.022;21.356;2024-03-22T02:00:20;13.43;;;7.93;;
78308;SDS011;75657;42.022;21.356;2024-03-22T02:02:46;14.55;;;8.07;;
78308;SDS011;75657;42.022;21.356;2024-03-22T02:05:12;17.75;;;8.38;;
78308;SDS011;75657;42.022;21.356;2024-03-22T02:07:38;14.05;;;8.40;;
78308;SDS011;75657;42.022;21.356;2024-03-22T02:10:04;15.85;;;9.25;;
78308;SDS011;75657;42.022;21.356;2024-03-22T02:12:30;11.57;;;7.30;;
78308;SDS011;75657;42.022;21.356;2024-03-22T02:14:57;11.82;;;8.57;;
78308;SDS011;75657;42.022;21.356;2024-03-22T02:17:23;15.23;;;8.60;;
78308;SDS011;75657;42.022;21.356;2024-03-22T02:19:48;13.85;;;8.85;;
78308;SDS011;75657;42.022;21.356;2024-03-22T02:22:14;13.40;;;8.18;;
78308;SDS011;75657;42.022;21.356;2024-03-22T02:24:39;12.25;;;8.00;;
78308;SDS011;75657;42.022;21.356;2024-03-22T02:27:04;11.57;;;7.40;;
78308;SDS011;75657;42.022;21.356;2024-03-22T02:29:30;12.10;;;7.45;;
78308;SDS011;75657;42.022;21.356;2024-03-22T02:31:55;11.75;;;7.60;;
78308;SDS011;75657;42.022;21.356;2024-03-22T02:34:23;13.10;;;8.15;;
78308;SDS011;75657;42.022;21.356;2024-03-22T02:36:48;11.77;;;7.03;;
78308;SDS011;75657;42.022;21.356;2024-03-22T02:39:14;11.48;;;6.95;;
78308;SDS011;75657;42.022;21.356;2024-03-22T02:41:40;11.10;;;6.50;;
78308;SDS011;75657;42.022;21.356;2024-03-22T02:44:05;14.25;;;7.43;;
78308;SDS011;75657;42.022;21.356;2024-03-22T02:46:31;11.38;;;6.60;;
78308;SDS011;75657;42.022;21.356;2024-03-22T02:48:56;12.10;;;7.15;;
78308;SDS011;75657;42.022;21.356;2024-03-22T02:51:22;12.38;;;6.70;;
78308;SDS011;75657;42.022;21.356;2024-03-22T02:53:47;12.45;;;6.97;;
78308;SDS011;75657;42.022;21.356;2024-03-22T02:56:13;12.73;;;7.28;;
78308;SDS011;75657;42.022;21.356;2024-03-22T02:58:38;13.27;;;7.70;;
78308;SDS011;75657;42.022;21.356;2024-03-22T03:01:03;11.30;;;6.05;;
78308;SDS011;75657;42.022;21.356;2024-03-22T03:03:30;9.40;;;5.97;;
78308;SDS011;75657;42.022;21.356;2024-03-22T03:05:56;10.55;;;6.07;;
78308;SDS011;75657;42.022;21.356;2024-03-22T03:08:21;9.90;;;6.22;;
78308;SDS011;75657;42.022;21.356;2024-03-22T03:10:47;12.18;;;6.50;;
78308;SDS011;75657;42.022;21.356;2024-03-22T03:13:12;10.60;;;6.20;;
78308;SDS011;75657;42.022;21.356;2024-03-22T03:15:38;11.93;;;6.30;;
78308;SDS011;75657;42.022;21.356;2024-03-22T03:18:03;10.90;;;5.45;;
78308;SDS011;75657;42.022;21.356;2024-03-22T03:20:29;12.57;;;6.05;;
78308;SDS011;75657;42.022;21.356;2024-03-22T03:22:54;12.60;;;6.60;;
78308;SDS011;75657;42.022;21.356;2024-03-22T03:25:22;8.88;;;5.43;;
78308;SDS011;75657;42.022;21.356;2024-03-22T03:27:48;11.35;;;6.72;;
78308;SDS011;75657;42.022;21.356;2024-03-22T03:30:13;14.98;;;7.85;;
78308;SDS011;75657;42.022;21.356;2024-03-22T03:32:39;26.40;;;11.82;;
78308;SDS011;75657;42.022;21.356;2024-03-22T03:35:04;16.60;;;9.93;;
78308;SDS011;75657;42.022;21.356;2024-03-22T03:37:30;14.90;;;7.28;;
78308;SDS011;75657;42.022;21.356;2024-03-22T03:39:56;12.43;;;7.28;;
78308;SDS011;75657;42.022;21.356;2024-03-22T03:42:21;10.68;;;6.53;;
78308;SDS011;75657;42.022;21.356;2024-03-22T03:44:47;13.73;;;7.32;;
78308;SDS011;75657;42.022;21.356;2024-03-22T03:47:12;13.02;;;6.15;;
78308;SDS011;75657;42.022;21.356;2024-03-22T03:49:38;11.00;;;6.60;;
78308;SDS011;75657;42.022;21.356;2024-03-22T03:52:03;11.82;;;6.60;;
78308;SDS011;75657;42.022;21.356;2024-03-22T03:54:29;9.90;;;5.63;;
78308;SDS011;75657;42.022;21.356;2024-03-22T03:56:54;10.25;;;5.97;;
78308;SDS011;75657;42.022;21.356;2024-03-22T03:59:20;12.52;;;6.15;;
78308;SDS011;75657;42.022;21.356;2024-03-22T04:01:45;9.98;;;5.47;;
78308;SDS011;75657;42.022;21.356;2024-03-22T04:04:11;11.38;;;6.18;;
78308;SDS011;75657;42.022;21.356;2024-03-22T04:06:37;12.02;;;6.18;;
78308;SDS011;75657;42.022;21.356;2024-03-22T04:09:02;14.60;;;7.22;;
78308;SDS011;75657;42.022;21.356;2024-03-22T04:11:28;14.32;;;6.40;;
78308;SDS011;75657;42.022;21.356;2024-03-22T04:13:54;10.45;;;5.88;;
78308;SDS011;75657;42.022;21.356;2024-03-22T04:16:19;12.27;;;6.20;;
78308;SDS011;75657;42.022;21.356;2024-03-22T04:18:45;11.98;;;6.32;;
78308;SDS011;75657;42.022;21.356;2024-03-22T04:21:10;11.02;;;5.97;;
78308;SDS011;75657;42.022;21.356;2024-03-22T04:23:36;14.95;;;7.18;;
78308;SDS011;75657;42.022;21.356;2024-03-22T04:26:01;15.65;;;7.68;;
78308;SDS011;75657;42.022;21.356;2024-03-22T04:28:28;12.15;;;6.90;;
78308;SDS011;75657;42.022;21.356;2024-03-22T04:31:03;13.65;;;7.57;;
78308;SDS011;75657;42.022;21.356;2024-03-22T04:33:30;13.85;;;8.07;;
78308;SDS011;75657;42.022;21.356;2024-03-22T04:35:56;14.15;;;8.68;;
78308;SDS011;75657;42.022;21.356;2024-03-22T04:38:23;18.35;;;8.73;;
78308;SDS011;75657;42.022;21.356;2024-03-22T04:40:49;15.98;;;7.53;;
78308;SDS011;75657;42.022;21.356;2024-03-22T04:43:15;13.20;;;7.20;;
78308;SDS011;75657;42.022;21.356;2024-03-22T04:45:42;14.40;;;7.03;;
78308;SDS011;75657;42.022;21.356;2024-03-22T04:48:08;76.30;;;27.55;;
78308;SDS011;75657;42.022;21.356;2024-03-22T04:50:34;314.48;;;93.05;;
78308;SDS011;75657;42.022;21.356;2024-03-22T04:53:00;174.00;;;51.83;;
78308;SDS011;75657;42.022;21.356;2024-03-22T04:55:26;810.60;;;315.45;;
78308;SDS011;75657;42.022;21.356;2024-03-22T04:57:51;878.45;;;331.52;;
78308;SDS011;75657;42.022;21.356;2024-03-22T05:00:17;590.40;;;205.48;;
78308;SDS011;75657;42.022;21.356;2024-03-22T05:02:43;316.67;;;94.68;;
78308;SDS011;75657;42.022;21.356;2024-03-22T05:05:08;146.60;;;43.83;;
78308;SDS011;75657;42.022;21.356;2024-03-22T05:07:34;33.53;;;14.93;;
78308;SDS011;75657;42.022;21.356;2024-03-22T05:10:00;22.80;;;11.40;;
78308;SDS011;75657;42.022;21.356;2024-03-22T05:12:26;19.90;;;10.90;;
78308;SDS011;75657;42.022;21.356;2024-03-22T05:14:51;24.23;;;12.13;;
78308;SDS011;75657;42.022;21.356;2024-03-22T05:17:17;24.45;;;13.23;;
78308;SDS011;75657;42.022;21.356;2024-03-22T05:19:42;20.58;;;10.48;;
78308;SDS011;75657;42.022;21.356;2024-03-22T05:22:08;21.73;;;11.75;;
78308;SDS011;75657;42.022;21.356;2024-03-22T05:24:33;22.23;;;11.70;;
78308;SDS011;75657;42.022;21.356;2024-03-22T05:26:59;19.70;;;11.27;;
78308;SDS011;75657;42.022;21.356;2024-03-22T05:29:25;20.80;;;10.88;;
78308;SDS011;75657;42.022;21.356;2024-03-22T05:31:50;46.28;;;22.38;;
78308;SDS011;75657;42.022;21.356;2024-03-22T05:34:17;37.47;;;19.35;;
78308;SDS011;75657;42.022;21.356;2024-03-22T05:36:43;36.25;;;16.45;;
78308;SDS011;75657;42.022;21.356;2024-03-22T05:39:08;28.70;;;14.07;;
78308;SDS011;75657;42.022;21.356;2024-03-22T05:41:36;27.90;;;15.15;;
78308;SDS011;75657;42.022;21.356;2024-03-22T05:44:02;29.40;;;15.60;;
78308;SDS011;75657;42.022;21.356;2024-03-22T05:46:28;20.35;;;12.73;;
78308;SDS011;75657;42.022;21.356;2024-03-22T05:48:54;27.05;;;14.95;;
78308;SDS011;75657;42.022;21.356;2024-03-22T05:51:19;24.80;;;13.93;;
78308;SDS011;75657;42.022;21.356;2024-03-22T05:53:45;28.58;;;13.93;;
78308;SDS011;75657;42.022;21.356;2024-03-22T05:56:10;22.42;;;13.43;;
78308;SDS011;75657;42.022;21.356;2024-03-22T05:58:36;26.55;;;15.13;;
78308;SDS011;75657;42.022;21.356;2024-03-22T06:01:02;22.92;;;14.30;;
78308;SDS011;75657;42.022;21.356;2024-03-22T06:03:30;26.00;;;12.45;;
78308;SDS011;75657;42.022;21.356;2024-03-22T06:05:58;24.10;;;13.57;;
78308;SDS011;75657;42.022;21.356;2024-03-22T06:08:25;24.20;;;13.32;;
78308;SDS011;75657;42.022;21.356;2024-03-22T06:10:52;25.63;;;12.75;;
78308;SDS011;75657;42.022;21.356;2024-03-22T06:13:18;20.73;;;13.40;;
78308;SDS011;75657;42.022;21.356;2024-03-22T06:15:43;23.08;;;13.38;;
78308;SDS011;75657;42.022;21.356;2024-03-22T06:18:12;29.20;;;15.18;;
78308;SDS011;75657;42.022;21.356;2024-03-22T06:20:37;26.95;;;14.00;;
78308;SDS011;75657;42.022;21.356;2024-03-22T06:23:03;32.17;;;15.30;;
78308;SDS011;75657;42.022;21.356;2024-03-22T06:25:28;26.90;;;13.88;;
78308;SDS011;75657;42.022;21.356;2024-03-22T06:27:54;33.15;;;14.77;;
78308;SDS011;75657;42.022;21.356;2024-03-22T06:30:20;29.70;;;15.75;;
78308;SDS011;75657;42.022;21.356;2024-03-22T06:32:45;29.55;;;14.43;;
78308;SDS011;75657;42.022;21.356;2024-03-22T06:35:11;29.52;;;16.38;;
78308;SDS011;75657;42.022;21.356;2024-03-22T06:37:37;32.50;;;16.15;;
78308;SDS011;75657;42.022;21.356;2024-03-22T06:40:04;27.98;;;14.60;;
78308;SDS011;75657;42.022;21.356;2024-03-22T06:42:30;32.90;;;15.77;;
78308;SDS011;75657;42.022;21.356;2024-03-22T06:44:56;34.63;;;17.65;;
78308;SDS011;75657;42.022;21.356;2024-03-22T06:47:21;28.63;;;16.00;;
78308;SDS011;75657;42.022;21.356;2024-03-22T06:49:48;32.15;;;14.55;;
78308;SDS011;75657;42.022;21.356;2024-03-22T06:52:14;27.85;;;15.23;;
78308;SDS011;75657;42.022;21.356;2024-03-22T06:54:40;35.08;;;17.00;;
78308;SDS011;75657;42.022;21.356;2024-03-22T06:57:06;32.67;;;16.48;;
78308;SDS011;75657;42.022;21.356;2024-03-22T06:59:31;35.80;;;17.65;;
78308;SDS011;75657;42.022;21.356;2024-03-22T07:01:57;35.65;;;17.08;;
78308;SDS011;75657;42.022;21.356;2024-03-22T07:04:22;36.50;;;16.23;;
78308;SDS011;75657;42.022;21.356;2024-03-22T07:06:48;43.15;;;19.23;;
78308;SDS011;75657;42.022;21.356;2024-03-22T07:09:13;33.97;;;17.30;;
78308;SDS011;75657;42.022;21.356;2024-03-22T07:11:39;30.42;;;15.90;;
78308;SDS011;75657;42.022;21.356;2024-03-22T07:14:04;28.38;;;15.45;;
78308;SDS011;75657;42.022;21.356;2024-03-22T07:16:30;28.35;;;14.90;;
78308;SDS011;75657;42.022;21.356;2024-03-22T07:18:55;33.65;;;16.38;;
78308;SDS011;75657;42.022;21.356;2024-03-22T07:21:21;27.02;;;15.60;;
78308;SDS011;75657;42.022;21.356;2024-03-22T07:23:47;26.55;;;14.88;;
78308;SDS011;75657;42.022;21.356;2024-03-22T07:26:12;20.65;;;11.50;;
78308;SDS011;75657;42.022;21.356;2024-03-22T07:28:38;26.63;;;14.85;;
78308;SDS011;75657;42.022;21.356;2024-03-22T07:31:03;38.45;;;18.75;;
78308;SDS011;75657;42.022;21.356;2024-03-22T07:33:30;30.48;;;17.77;;
78308;SDS011;75657;42.022;21.356;2024-03-22T07:35:56;23.85;;;12.73;;
78308;SDS011;75657;42.022;21.356;2024-03-22T07:38:26;17.73;;;10.95;;
78308;SDS011;75657;42.022;21.356;2024-03-22T07:40:51;23.58;;;12.30;;
78308;SDS011;75657;42.022;21.356;2024-03-22T07:43:18;20.02;;;10.60;;
78308;SDS011;75657;42.022;21.356;2024-03-22T07:45:43;20.15;;;9.98;;
78308;SDS011;75657;42.022;21.356;2024-03-22T07:48:08;17.67;;;9.82;;
78308;SDS011;75657;42.022;21.356;2024-03-22T07:50:35;15.30;;;8.52;;
78308;SDS011;75657;42.022;21.356;2024-03-22T07:53:01;13.45;;;8.88;;
78308;SDS011;75657;42.022;21.356;2024-03-22T07:55:26;15.07;;;8.45;;
78308;SDS011;75657;42.022;21.356;2024-03-22T07:57:51;16.02;;;8.82;;
78308;SDS011;75657;42.022;21.356;2024-03-22T08:00:17;15.60;;;8.32;;
78308;SDS011;75657;42.022;21.356;2024-03-22T08:02:43;16.20;;;8.40;;
78308;SDS011;75657;42.022;21.356;2024-03-22T08:05:08;17.13;;;8.32;;
78308;SDS011;75657;42.022;21.356;2024-03-22T08:07:34;13.75;;;8.25;;
78308;SDS011;75657;42.022;21.356;2024-03-22T08:10:00;15.90;;;8.57;;
78308;SDS011;75657;42.022;21.356;2024-03-22T08:12:27;15.77;;;8.30;;
78308;SDS011;75657;42.022;21.356;2024-03-22T08:14:52;12.40;;;8.23;;
78308;SDS011;75657;42.022;21.356;2024-03-22T08:17:18;12.82;;;8.63;;
78308;SDS011;75657;42.022;21.356;2024-03-22T08:19:43;15.40;;;8.60;;
78308;SDS011;75657;42.022;21.356;2024-03-22T08:22:09;14.05;;;8.45;;
78308;SDS011;75657;42.022;21.356;2024-03-22T08:24:35;11.57;;;7.13;;
78308;SDS011;75657;42.022;21.356;2024-03-22T08:27:01;13.88;;;8.43;;
78308;SDS011;75657;42.022;21.356;2024-03-22T08:29:26;13.50;;;8.40;;
78308;SDS011;75657;42.022;21.356;2024-03-22T08:31:52;14.82;;;8.18;;
78308;SDS011;75657;42.022;21.356;2024-03-22T08:34:18;14.65;;;8.50;;
78308;SDS011;75657;42.022;21.356;2024-03-22T08:36:43;16.05;;;8.13;;
78308;SDS011;75657;42.022;21.356;2024-03-22T08:39:09;15.30;;;7.60;;
78308;SDS011;75657;42.022;21.356;2024-03-22T08:41:36;16.80;;;8.48;;
78308;SDS011;75657;42.022;21.356;2024-03-22T08:44:02;12.57;;;7.43;;
78308;SDS011;75657;42.022;21.356;2024-03-22T08:46:28;14.40;;;9.05;;
78308;SDS011;75657;42.022;21.356;2024-03-22T08:48:53;16.73;;;8.32;;
78308;SDS011;75657;42.022;21.356;2024-03-22T08:51:19;17.75;;;9.25;;
78308;SDS011;75657;42.022;21.356;2024-03-22T08:53:45;14.40;;;7.72;;
78308;SDS011;75657;42.022;21.356;2024-03-22T08:56:11;16.02;;;8.73;;
78308;SDS011;75657;42.022;21.356;2024-03-22T08:58:36;12.57;;;6.50;;
78308;SDS011;75657;42.022;21.356;2024-03-22T09:01:02;13.25;;;7.35;;
78308;SDS011;75657;42.022;21.356;2024-03-22T09:03:27;11.82;;;6.85;;
78308;SDS011;75657;42.022;21.356;2024-03-22T09:05:53;12.57;;;7.05;;
78308;SDS011;75657;42.022;21.356;2024-03-22T09:08:19;11.70;;;6.88;;
78308;SDS011;75657;42.022;21.356;2024-03-22T09:10:46;14.90;;;7.70;;
78308;SDS011;75657;42.022;21.356;2024-03-22T09:13:12;14.63;;;7.30;;
78308;SDS011;75657;42.022;21.356;2024-03-22T09:15:38;13.57;;;7.15;;
78308;SDS011;75657;42.022;21.356;2024-03-22T09:18:06;14.57;;;7.75;;
78308;SDS011;75657;42.022;21.356;2024-03-22T09:20:31;13.75;;;7.93;;
78308;SDS011;75657;42.022;21.356;2024-03-22T09:22:58;11.75;;;6.82;;
78308;SDS011;75657;42.022;21.356;2024-03-22T09:25:23;15.70;;;8.32;;
78308;SDS011;75657;42.022;21.356;2024-03-22T09:27:49;13.50;;;7.68;;
78308;SDS011;75657;42.022;21.356;2024-03-22T09:30:15;12.32;;;7.25;;
78308;SDS011;75657;42.022;21.356;2024-03-22T09:32:40;15.48;;;7.82;;
78308;SDS011;75657;42.022;21.356;2024-03-22T09:35:07;14.10;;;8.10;;
78308;SDS011;75657;42.022;21.356;2024-03-22T09:37:33;13.70;;;7.82;;
78308;SDS011;75657;42.022;21.356;2024-03-22T09:39:59;21.88;;;11.07;;
78308;SDS011;75657;42.022;21.356;2024-03-22T09:42:24;13.32;;;7.10;;
78308;SDS011;75657;42.022;21.356;2024-03-22T09:44:51;15.48;;;6.93;;
78308;SDS011;75657;42.022;21.356;2024-03-22T09:47:17;13.82;;;7.43;;
78308;SDS011;75657;42.022;21.356;2024-03-22T09:49:43;12.90;;;6.57;;
78308;SDS011;75657;42.022;21.356;2024-03-22T09:52:14;11.57;;;6.75;;
78308;SDS011;75657;42.022;21.356;2024-03-22T09:54:42;13.35;;;9.23;;
78308;SDS011;75657;42.022;21.356;2024-03-22T09:57:14;13.45;;;8.05;;
78308;SDS011;75657;42.022;21.356;2024-03-22T09:59:44;13.32;;;6.95;;
78308;SDS011;75657;42.022;21.356;2024-03-22T10:02:11;11.30;;;7.85;;
78308;SDS011;75657;42.022;21.356;2024-03-22T10:04:38;16.13;;;7.72;;
78308;SDS011;75657;42.022;21.356;2024-03-22T10:07:06;12.52;;;7.32;;
78308;SDS011;75657;42.022;21.356;2024-03-22T10:09:35;13.82;;;7.65;;
78308;SDS011;75657;42.022;21.356;2024-03-22T10:12:02;12.95;;;7.03;;
78308;SDS011;75657;42.022;21.356;2024-03-22T10:14:28;12.95;;;7.05;;
78308;SDS011;75657;42.022;21.356;2024-03-22T10:16:55;10.50;;;6.82;;
78308;SDS011;75657;42.022;21.356;2024-03-22T10:19:22;12.18;;;6.95;;
78308;SDS011;75657;42.022;21.356;2024-03-22T10:21:48;11.40;;;7.13;;
78308;SDS011;75657;42.022;21.356;2024-03-22T10:24:25;13.75;;;7.15;;
78308;SDS011;75657;42.022;21.356;2024-03-22T10:26:50;10.82;;;7.38;;
78308;SDS011;75657;42.022;21.356;2024-03-22T10:29:16;13.40;;;7.78;;
78308;SDS011;75657;42.022;21.356;2024-03-22T10:31:43;10.32;;;6.40;;
78308;SDS011;75657;42.022;21.356;2024-03-22T10:34:09;10.43;;;6.35;;
78308;SDS011;75657;42.022;21.356;2024-03-22T10:36:38;12.70;;;7.50;;
78308;SDS011;75657;42.022;21.356;2024-03-22T10:39:05;12.45;;;7.95;;
78308;SDS011;75657;42.022;21.356;2024-03-22T10:41:32;13.05;;;7.75;;
78308;SDS011;75657;42.022;21.356;2024-03-22T10:43:57;13.27;;;7.40;;
78308;SDS011;75657;42.022;21.356;2024-03-22T10:46:23;11.52;;;7.63;;
78308;SDS011;75657;42.022;21.356;2024-03-22T10:48:57;10.02;;;6.40;;
78308;SDS011;75657;42.022;21.356;2024-03-22T10:51:23;11.52;;;6.15;;
78308;SDS011;75657;42.022;21.356;2024-03-22T10:53:52;13.52;;;6.68;;
78308;SDS011;75657;42.022;21.356;2024-03-22T10:56:20;13.90;;;7.25;;
78308;SDS011;75657;42.022;21.356;2024-03-22T10:58:48;13.55;;;7.72;;
78308;SDS011;75657;42.022;21.356;2024-03-22T11:01:24;12.88;;;7.72;;
78308;SDS011;75657;42.022;21.356;2024-03-22T11:03:51;11.50;;;7.90;;
78308;SDS011;75657;42.022;21.356;2024-03-22T11:06:28;11.43;;;6.70;;
78308;SDS011;75657;42.022;21.356;2024-03-22T11:08:58;12.25;;;7.22;;
78308;SDS011;75657;42.022;21.356;2024-03-22T11:11:25;11.95;;;7.07;;
78308;SDS011;75657;42.022;21.356;2024-03-22T11:13:53;11.27;;;6.93;;
78308;SDS011;75657;42.022;21.356;2024-03-22T11:16:21;11.43;;;6.38;;
78308;SDS011;75657;42.022;21.356;2024-03-22T11:18:46;11.23;;;7.13;;
78308;SDS011;75657;42.022;21.356;2024-03-22T11:21:13;10.65;;;6.90;;
78308;SDS011;75657;42.022;21.356;2024-03-22T11:23:39;11.30;;;7.38;;
78308;SDS011;75657;42.022;21.356;2024-03-22T11:26:05;12.05;;;6.60;;
78308;SDS011;75657;42.022;21.356;2024-03-22T11:28:32;12.15;;;6.93;;
78308;SDS011;75657;42.022;21.356;2024-03-22T11:30:58;10.90;;;6.82;;
78308;SDS011;75657;42.022;21.356;2024-03-22T11:33:24;11.85;;;6.70;;
78308;SDS011;75657;42.022;21.356;2024-03-22T11:35:52;10.95;;;6.68;;
78308;SDS011;75657;42.022;21.356;2024-03-22T11:38:18;13.60;;;7.35;;
78308;SDS011;75657;42.022;21.356;2024-03-22T11:40:44;12.23;;;6.95;;
78308;SDS011;75657;42.022;21.356;2024-03-22T11:43:10;10.00;;;6.55;;
78308;SDS011;75657;42.022;21.356;2024-03-22T11:45:38;8.00;;;5.97;;
78308;SDS011;75657;42.022;21.356;2024-03-22T11:48:05;9.00;;;6.13;;
78308;SDS011;75657;42.022;21.356;2024-03-22T11:50:31;10.82;;;6.20;;
78308;SDS011;75657;42.022;21.356;2024-03-22T11:52:57;10.88;;;6.88;;
78308;SDS011;75657;42.022;21.356;2024-03-22T11:55:26;11.65;;;6.82;;
78308;SDS011;75657;42.022;21.356;2024-03-22T11:57:52;11.45;;;6.25;;
78308;SDS011;75657;42.022;21.356;2024-03-22T12:00:18;9.27;;;6.30;;
78308;SDS011;75657;42.022;21.356;2024-03-22T12:02:44;9.35;;;5.82;;
78308;SDS011;75657;42.022;21.356;2024-03-22T12:05:11;13.80;;;6.97;;
78308;SDS011;75657;42.022;21.356;2024-03-22T12:07:36;12.23;;;7.57;;
78308;SDS011;75657;42.022;21.356;2024-03-22T12:10:02;13.38;;;7.80;;
78308;SDS011;75657;42.022;21.356;2024-03-22T12:12:29;11.60;;;6.88;;
78308;SDS011;75657;42.022;21.356;2024-03-22T12:14:55;12.65;;;6.07;;
78308;SDS011;75657;42.022;21.356;2024-03-22T12:17:20;8.48;;;5.93;;
78308;SDS011;75657;42.022;21.356;2024-03-22T12:19:46;11.68;;;7.03;;
78308;SDS011;75657;42.022;21.356;2024-03-22T12:22:12;9.40;;;5.80;;
78308;SDS011;75657;42.022;21.356;2024-03-22T12:24:38;9.52;;;6.07;;
78308;SDS011;75657;42.022;21.356;2024-03-22T12:27:03;10.00;;;5.78;;
78308;SDS011;75657;42.022;21.356;2024-03-22T12:29:32;9.48;;;5.97;;
78308;SDS011;75657;42.022;21.356;2024-03-22T12:31:58;9.30;;;5.70;;
78308;SDS011;75657;42.022;21.356;2024-03-22T12:34:26;8.48;;;5.60;;
78308;SDS011;75657;42.022;21.356;2024-03-22T12:36:52;8.95;;;6.20;;
78308;SDS011;75657;42.022;21.356;2024-03-22T12:39:18;9.93;;;7.00;;
78308;SDS011;75657;42.022;21.356;2024-03-22T12:41:43;7.85;;;4.75;;
78308;SDS011;75657;42.022;21.356;2024-03-22T12:44:09;9.55;;;5.80;;
78308;SDS011;75657;42.022;21.356;2024-03-22T12:46:34;8.68;;;5.80;;
78308;SDS011;75657;42.022;21.356;2024-03-22T12:48:59;8.65;;;5.28;;
78308;SDS011;75657;42.022;21.356;2024-03-22T12:51:25;8.23;;;4.43;;
78308;SDS011;75657;42.022;21.356;2024-03-22T12:53:50;7.78;;;5.03;;
78308;SDS011;75657;42.022;21.356;2024-03-22T12:56:16;8.00;;;5.40;;
78308;SDS011;75657;42.022;21.356;2024-03-22T12:58:41;6.90;;;4.25;;
78308;SDS011;75657;42.022;21.356;2024-03-22T13:01:08;8.65;;;4.97;;
78308;SDS011;75657;42.022;21.356;2024-03-22T13:03:33;7.60;;;5.03;;
78308;SDS011;75657;42.022;21.356;2024-03-22T13:05:59;9.63;;;5.30;;
78308;SDS011;75657;42.022;21.356;2024-03-22T13:08:25;6.50;;;4.45;;
78308;SDS011;75657;42.022;21.356;2024-03-22T13:10:50;9.32;;;5.32;;
78308;SDS011;75657;42.022;21.356;2024-03-22T13:13:17;7.68;;;4.38;;
78308;SDS011;75657;42.022;21.356;2024-03-22T13:15:43;9.65;;;5.32;;
78308;SDS011;75657;42.022;21.356;2024-03-22T13:18:08;8.80;;;5.88;;
78308;SDS011;75657;42.022;21.356;2024-03-22T13:20:36;10.07;;;5.97;;
78308;SDS011;75657;42.022;21.356;2024-03-22T13:23:02;7.00;;;4.55;;
78308;SDS011;75657;42.022;21.356;2024-03-22T13:25:28;8.00;;;5.05;;
78308;SDS011;75657;42.022;21.356;2024-03-22T13:27:54;8.25;;;5.65;;
78308;SDS011;75657;42.022;21.356;2024-03-22T13:30:19;6.47;;;4.50;;
78308;SDS011;75657;42.022;21.356;2024-03-22T13:32:45;9.65;;;5.10;;
78308;SDS011;75657;42.022;21.356;2024-03-22T13:35:10;6.47;;;4.63;;
78308;SDS011;75657;42.022;21.356;2024-03-22T13:37:36;7.57;;;5.05;;
78308;SDS011;75657;42.022;21.356;2024-03-22T13:40:02;8.73;;;5.07;;
78308;SDS011;75657;42.022;21.356;2024-03-22T13:42:28;8.18;;;5.10;;
78308;SDS011;75657;42.022;21.356;2024-03-22T13:44:53;7.88;;;5.38;;
78308;SDS011;75657;42.022;21.356;2024-03-22T13:47:19;7.65;;;5.15;;
78308;SDS011;75657;42.022;21.356;2024-03-22T13:49:45;11.07;;;4.82;;
78308;SDS011;75657;42.022;21.356;2024-03-22T13:52:10;8.02;;;5.10;;
78308;SDS011;75657;42.022;21.356;2024-03-22T13:54:36;6.85;;;5.28;;
78308;SDS011;75657;42.022;21.356;2024-03-22T13:57:02;7.85;;;5.05;;
78308;SDS011;75657;42.022;21.356;2024-03-22T13:59:28;7.60;;;4.38;;
78308;SDS011;75657;42.022;21.356;2024-03-22T14:01:54;8.85;;;4.78;;
78308;SDS011;75657;42.022;21.356;2024-03-22T14:04:19;5.75;;;4.20;;
78308;SDS011;75657;42.022;21.356;2024-03-22T14:06:45;8.52;;;4.70;;
78308;SDS011;75657;42.022;21.356;2024-03-22T14:09:11;10.35;;;6.32;;
78308;SDS011;75657;42.022;21.356;2024-03-22T14:11:38;9.23;;;5.57;;